sensor_id;sensor_type;location;lat;lon;timestamp;pressure;altitude;pressure_sealevel;temperature;humidity
37778;BME280;23615;51.506;7.678;2023-07-31T00:02:14;99479.75;;;16.32;100.00
37778;BME280;23615;51.506;7.678;2023-07-31T00:04:39;99487.25;;;16.40;100.00
37778;BME280;23615;51.506;7.678;2023-07-31T00:07:32;99480.25;;;16.39;100.00
37778;BME280;23615;51.506;7.678;2023-07-31T00:10:15;99483.22;;;16.42;100.00
37778;BME280;23615;51.506;7.678;2023-07-31T00:12:42;99479.97;;;16.51;100.00
37778;BME280;23615;51.506;7.678;2023-07-31T00:15:09;99479.72;;;16.47;100.00
37778;BME280;23615;51.506;7.678;2023-07-31T00:17:34;99472.19;;;16.44;100.00
37778;BME280;23615;51.506;7.678;2023-07-31T00:20:00;99484.00;;;16.53;100.00
37778;BME280;23615;51.506;7.678;2023-07-31T00:22:25;99472.69;;;16.51;100.00
37778;BME280;23615;51.506;7.678;2023-07-31T00:24:51;99469.50;;;16.44;100.00
37778;BME280;23615;51.506;7.678;2023-07-31T00:27:16;99472.94;;;16.50;100.00
37778;BME280;23615;51.506;7.678;2023-07-31T00:29:41;99470.03;;;16.46;100.00
37778;BME280;23615;51.506;7.678;2023-07-31T00:32:07;99468.66;;;16.48;100.00
37778;BME280;23615;51.506;7.678;2023-07-31T00:34:32;99471.34;;;16.48;100.00
37778;BME280;23615;51.506;7.678;2023-07-31T00:36:57;99467.03;;;16.53;100.00
37778;BME280;23615;51.506;7.678;2023-07-31T00:39:23;99463.00;;;16.55;100.00
37778;BME280;23615;51.506;7.678;2023-07-31T00:41:48;99464.91;;;16.44;100.00
37778;BME280;23615;51.506;7.678;2023-07-31T00:44:13;99465.44;;;16.46;100.00
37778;BME280;23615;51.506;7.678;2023-07-31T00:46:39;99470.03;;;16.46;100.00
37778;BME280;23615;51.506;7.678;2023-07-31T00:49:05;99465.16;;;16.48;100.00
37778;BME280;23615;51.506;7.678;2023-07-31T00:51:30;99461.94;;;16.46;100.00
37778;BME280;23615;51.506;7.678;2023-07-31T00:53:56;99461.94;;;16.46;100.00
37778;BME280;23615;51.506;7.678;2023-07-31T00:56:22;99456.53;;;16.51;100.00
37778;BME280;23615;51.506;7.678;2023-07-31T00:58:47;99466.25;;;16.47;100.00
37778;BME280;23615;51.506;7.678;2023-07-31T01:01:13;99452.78;;;16.42;100.00
37778;BME280;23615;51.506;7.678;2023-07-31T01:03:38;99454.69;;;16.46;100.00
37778;BME280;23615;51.506;7.678;2023-07-31T01:09:23;99466.00;;;16.43;100.00
37778;BME280;23615;51.506;7.678;2023-07-31T01:11:56;99451.72;;;16.43;100.00
37778;BME280;23615;51.506;7.678;2023-07-31T01:14:22;99462.47;;;16.48;100.00
37778;BME280;23615;51.506;7.678;2023-07-31T01:16:47;99458.72;;;16.44;100.00
37778;BME280;23615;51.506;7.678;2023-07-31T01:19:14;99463.56;;;16.42;100.00
37778;BME280;23615;51.506;7.678;2023-07-31T01:21:59;99459.75;;;16.48;100.00
37778;BME280;23615;51.506;7.678;2023-07-31T01:27:22;99454.94;;;16.45;100.00
37778;BME280;23615;51.506;7.678;2023-07-31T01:30:03;99470.84;;;16.41;100.00
37778;BME280;23615;51.506;7.678;2023-07-31T01:32:36;99470.53;;;16.48;100.00
37778;BME280;23615;51.506;7.678;2023-07-31T01:35:05;99451.19;;;16.46;100.00
37778;BME280;23615;51.506;7.678;2023-07-31T01:37:31;99457.63;;;16.45;100.00
37778;BME280;23615;51.506;7.678;2023-07-31T01:39:56;99456.84;;;16.44;100.00
37778;BME280;23615;51.506;7.678;2023-07-31T01:42:21;99464.91;;;16.44;100.00
37778;BME280;23615;51.506;7.678;2023-07-31T01:44:46;99467.88;;;16.43;100.00
37778;BME280;23615;51.506;7.678;2023-07-31T01:47:12;99465.72;;;16.40;100.00
37778;BME280;23615;51.506;7.678;2023-07-31T01:49:37;99480.53;;;16.48;100.00
37778;BME280;23615;51.506;7.678;2023-07-31T01:52:03;99463.56;;;16.47;100.00
37778;BME280;23615;51.506;7.678;2023-07-31T01:54:28;99457.88;;;16.48;100.00
37778;BME280;23615;51.506;7.678;2023-07-31T01:56:53;99462.47;;;16.48;100.00
37778;BME280;23615;51.506;7.678;2023-07-31T01:59:19;99456.56;;;16.41;100.00
37778;BME280;23615;51.506;7.678;2023-07-31T02:01:44;99456.56;;;16.46;100.00
37778;BME280;23615;51.506;7.678;2023-07-31T02:04:09;99444.19;;;16.40;100.00
37778;BME280;23615;51.506;7.678;2023-07-31T02:06:34;99451.97;;;16.46;100.00
37778;BME280;23615;51.506;7.678;2023-07-31T02:09:00;99454.94;;;16.40;100.00
37778;BME280;23615;51.506;7.678;2023-07-31T02:11:25;99456.84;;;16.39;100.00
37778;BME280;23615;51.506;7.678;2023-07-31T02:13:50;99455.53;;;16.37;100.00
37778;BME280;23615;51.506;7.678;2023-07-31T02:16:16;99450.63;;;16.44;100.00
37778;BME280;23615;51.506;7.678;2023-07-31T02:18:41;99443.38;;;16.39;100.00
37778;BME280;23615;51.506;7.678;2023-07-31T02:21:06;99450.31;;;16.56;100.00
37778;BME280;23615;51.506;7.678;2023-07-31T02:23:31;99455.72;;;16.51;100.00
37778;BME280;23615;51.506;7.678;2023-07-31T02:25:57;99445.78;;;16.46;100.00
37778;BME280;23615;51.506;7.678;2023-07-31T02:28:23;99439.56;;;16.51;100.00
37778;BME280;23615;51.506;7.678;2023-07-31T02:30:50;99437.44;;;16.48;100.00
37778;BME280;23615;51.506;7.678;2023-07-31T02:33:15;99433.13;;;16.46;100.00
37778;BME280;23615;51.506;7.678;2023-07-31T02:35:41;99440.44;;;16.36;100.00
37778;BME280;23615;51.506;7.678;2023-07-31T02:38:06;99441.50;;;16.40;100.00
37778;BME280;23615;51.506;7.678;2023-07-31T02:40:32;99442.31;;;16.35;100.00
37778;BME280;23615;51.506;7.678;2023-07-31T02:42:57;99443.09;;;16.46;100.00
37778;BME280;23615;51.506;7.678;2023-07-31T02:45:22;99439.56;;;16.51;100.00
37778;BME280;23615;51.506;7.678;2023-07-31T02:47:47;99430.94;;;16.48;100.00
37778;BME280;23615;51.506;7.678;2023-07-31T02:50:13;99443.91;;;16.46;100.00
37778;BME280;23615;51.506;7.678;2023-07-31T02:52:38;99434.97;;;16.51;100.00
37778;BME280;23615;51.506;7.678;2023-07-31T02:55:04;99431.47;;;16.51;100.00
37778;BME280;23615;51.506;7.678;2023-07-31T02:57:29;99441.97;;;16.52;100.00
37778;BME280;23615;51.506;7.678;2023-07-31T02:59:54;99441.44;;;16.50;100.00
37778;BME280;23615;51.506;7.678;2023-07-31T03:02:19;99430.13;;;16.48;100.00
37778;BME280;23615;51.506;7.678;2023-07-31T03:04:45;99424.25;;;16.46;100.00
37778;BME280;23615;51.506;7.678;2023-07-31T03:07:10;99428.25;;;16.54;100.00
37778;BME280;23615;51.506;7.678;2023-07-31T03:09:35;99431.75;;;16.54;100.00
37778;BME280;23615;51.506;7.678;2023-07-31T03:12:00;99421.22;;;16.58;100.00
37778;BME280;23615;51.506;7.678;2023-07-31T03:14:26;99423.91;;;16.63;100.00
37778;BME280;23615;51.506;7.678;2023-07-31T03:16:52;99426.31;;;16.59;100.00
37778;BME280;23615;51.506;7.678;2023-07-31T03:19:17;99410.22;;;16.49;100.00
37778;BME280;23615;51.506;7.678;2023-07-31T03:21:42;99430.13;;;16.48;100.00
37778;BME280;23615;51.506;7.678;2023-07-31T03:24:07;99433.91;;;16.52;100.00
37778;BME280;23615;51.506;7.678;2023-07-31T03:26:33;99414.53;;;16.50;100.00
37778;BME280;23615;51.506;7.678;2023-07-31T03:28:58;99419.38;;;16.53;100.00
37778;BME280;23615;51.506;7.678;2023-07-31T03:31:23;99421.78;;;16.50;100.00
37778;BME280;23615;51.506;7.678;2023-07-31T03:33:49;99426.31;;;16.59;100.00
37778;BME280;23615;51.506;7.678;2023-07-31T03:36:14;99416.63;;;16.58;100.00
37778;BME280;23615;51.506;7.678;2023-07-31T03:38:39;99407.50;;;16.49;100.00
37778;BME280;23615;51.506;7.678;2023-07-31T03:41:04;99421.75;;;16.60;100.00
37778;BME280;23615;51.506;7.678;2023-07-31T03:43:31;99413.44;;;16.56;100.00
37778;BME280;23615;51.506;7.678;2023-07-31T03:45:58;99407.47;;;16.59;100.00
37778;BME280;23615;51.506;7.678;2023-07-31T03:48:24;99399.41;;;16.64;100.00
37778;BME280;23615;51.506;7.678;2023-07-31T03:50:49;99408.53;;;16.58;100.00
37778;BME280;23615;51.506;7.678;2023-07-31T03:53:14;99412.31;;;16.57;100.00
37778;BME280;23615;51.506;7.678;2023-07-31T03:55:40;99416.94;;;16.57;100.00
37778;BME280;23615;51.506;7.678;2023-07-31T03:58:05;99411.28;;;16.53;100.00
37778;BME280;23615;51.506;7.678;2023-07-31T04:00:30;99416.13;;;16.51;100.00
37778;BME280;23615;51.506;7.678;2023-07-31T04:02:56;99410.75;;;16.56;100.00
37778;BME280;23615;51.506;7.678;2023-07-31T04:05:21;99410.19;;;16.64;100.00
37778;BME280;23615;51.506;7.678;2023-07-31T04:07:46;99412.59;;;16.61;100.00
37778;BME280;23615;51.506;7.678;2023-07-31T04:10:11;99407.19;;;16.61;100.00
37778;BME280;23615;51.506;7.678;2023-07-31T04:12:37;99404.47;;;16.71;100.00
37778;BME280;23615;51.506;7.678;2023-07-31T04:15:02;99407.72;;;16.68;100.00
37778;BME280;23615;51.506;7.678;2023-07-31T04:17:27;99404.75;;;16.69;100.00
37778;BME280;23615;51.506;7.678;2023-07-31T04:19:53;99410.34;;;16.78;100.00
37778;BME280;23615;51.506;7.678;2023-07-31T04:22:18;99412.28;;;16.72;100.00
37778;BME280;23615;51.506;7.678;2023-07-31T04:24:43;99415.53;;;16.69;100.00
37778;BME280;23615;51.506;7.678;2023-07-31T04:27:09;99409.81;;;16.76;99.97
37778;BME280;23615;51.506;7.678;2023-07-31T04:29:34;99407.13;;;16.76;99.46
37778;BME280;23615;51.506;7.678;2023-07-31T04:31:59;99404.69;;;16.79;99.99
37778;BME280;23615;51.506;7.678;2023-07-31T04:34:24;99401.72;;;16.81;100.00
37778;BME280;23615;51.506;7.678;2023-07-31T04:36:50;99412.72;;;16.84;99.87
37778;BME280;23615;51.506;7.678;2023-07-31T04:39:15;99401.66;;;16.91;99.97
37778;BME280;23615;51.506;7.678;2023-07-31T04:41:40;99404.34;;;16.91;99.73
37778;BME280;23615;51.506;7.678;2023-07-31T04:44:05;99389.25;;;16.90;99.64
37778;BME280;23615;51.506;7.678;2023-07-31T04:46:31;99394.31;;;17.02;99.26
37778;BME280;23615;51.506;7.678;2023-07-31T04:48:56;99392.44;;;16.97;100.00
37778;BME280;23615;51.506;7.678;2023-07-31T04:51:22;99392.72;;;16.96;100.00
37778;BME280;23615;51.506;7.678;2023-07-31T04:53:48;99389.00;;;16.92;100.00
37778;BME280;23615;51.506;7.678;2023-07-31T04:56:13;99387.81;;;17.03;100.00
37778;BME280;23615;51.506;7.678;2023-07-31T04:58:40;99391.00;;;17.10;100.00
37778;BME280;23615;51.506;7.678;2023-07-31T05:01:05;99388.31;;;17.10;100.00
37778;BME280;23615;51.506;7.678;2023-07-31T05:03:31;99384.53;;;17.11;100.00
37778;BME280;23615;51.506;7.678;2023-07-31T05:05:56;99389.94;;;17.11;100.00
37778;BME280;23615;51.506;7.678;2023-07-31T05:08:21;99382.34;;;17.13;100.00
37778;BME280;23615;51.506;7.678;2023-07-31T05:10:46;99380.53;;;17.03;100.00
37778;BME280;23615;51.506;7.678;2023-07-31T05:13:12;99381.84;;;17.11;100.00
37778;BME280;23615;51.506;7.678;2023-07-31T05:15:37;99384.22;;;17.12;100.00
37778;BME280;23615;51.506;7.678;2023-07-31T05:18:03;99376.94;;;17.18;100.00
37778;BME280;23615;51.506;7.678;2023-07-31T05:20:28;99385.56;;;17.15;100.00
37778;BME280;23615;51.506;7.678;2023-07-31T05:22:53;99379.84;;;17.21;100.00
37778;BME280;23615;51.506;7.678;2023-07-31T05:25:19;99382.53;;;17.21;100.00
37778;BME280;23615;51.506;7.678;2023-07-31T05:27:45;99377.94;;;17.22;100.00
37778;BME280;23615;51.506;7.678;2023-07-31T05:30:10;99370.38;;;17.24;100.00
37778;BME280;23615;51.506;7.678;2023-07-31T05:32:35;99380.09;;;17.25;100.00
37778;BME280;23615;51.506;7.678;2023-07-31T05:35:00;99363.34;;;17.28;100.00
37778;BME280;23615;51.506;7.678;2023-07-31T05:37:26;99363.34;;;17.28;100.00
37778;BME280;23615;51.506;7.678;2023-07-31T05:39:51;99365.72;;;17.35;100.00
37778;BME280;23615;51.506;7.678;2023-07-31T05:42:17;99363.81;;;17.35;100.00
37778;BME280;23615;51.506;7.678;2023-07-31T05:44:42;99357.28;;;17.41;100.00
37778;BME280;23615;51.506;7.678;2023-07-31T05:47:08;99351.09;;;17.41;100.00
37778;BME280;23615;51.506;7.678;2023-07-31T05:49:34;99354.19;;;17.29;100.00
37778;BME280;23615;51.506;7.678;2023-07-31T05:51:59;99344.69;;;17.32;100.00
37778;BME280;23615;51.506;7.678;2023-07-31T05:54:24;99339.03;;;17.33;100.00
37778;BME280;23615;51.506;7.678;2023-07-31T05:56:49;99341.69;;;17.38;100.00
37778;BME280;23615;51.506;7.678;2023-07-31T05:59:16;99346.50;;;17.41;100.00
37778;BME280;23615;51.506;7.678;2023-07-31T06:01:41;99342.69;;;17.47;100.00
37778;BME280;23615;51.506;7.678;2023-07-31T06:04:07;99328.66;;;17.45;100.00
37778;BME280;23615;51.506;7.678;2023-07-31T06:06:32;99342.25;;;17.35;100.00
37778;BME280;23615;51.506;7.678;2023-07-31T06:08:57;99339.00;;;17.38;100.00
37778;BME280;23615;51.506;7.678;2023-07-31T06:11:23;99334.69;;;17.37;100.00
37778;BME280;23615;51.506;7.678;2023-07-31T06:13:48;99338.47;;;17.36;100.00
37778;BME280;23615;51.506;7.678;2023-07-31T06:16:14;99329.06;;;17.34;100.00
37778;BME280;23615;51.506;7.678;2023-07-31T06:18:40;99329.41;;;17.27;100.00
37778;BME280;23615;51.506;7.678;2023-07-31T06:21:06;99321.22;;;17.37;100.00
37778;BME280;23615;51.506;7.678;2023-07-31T06:23:31;99315.19;;;17.45;100.00
37778;BME280;23615;51.506;7.678;2023-07-31T06:25:56;99318.69;;;17.46;100.00
37778;BME280;23615;51.506;7.678;2023-07-31T06:28:48;99327.06;;;17.44;100.00
37778;BME280;23615;51.506;7.678;2023-07-31T06:31:16;99318.63;;;17.22;100.00
37778;BME280;23615;51.506;7.678;2023-07-31T06:33:45;99320.13;;;17.38;100.00
37778;BME280;23615;51.506;7.678;2023-07-31T06:36:10;99313.94;;;17.38;100.00
37778;BME280;23615;51.506;7.678;2023-07-31T06:38:36;99308.75;;;17.41;100.00
37778;BME280;23615;51.506;7.678;2023-07-31T06:41:02;99302.78;;;17.44;100.00
37778;BME280;23615;51.506;7.678;2023-07-31T06:43:29;99305.41;;;17.49;100.00
37778;BME280;23615;51.506;7.678;2023-07-31T06:45:54;99308.63;;;17.51;100.00
37778;BME280;23615;51.506;7.678;2023-07-31T06:48:19;99309.16;;;17.53;100.00
37778;BME280;23615;51.506;7.678;2023-07-31T06:50:44;99303.81;;;17.48;100.00
37778;BME280;23615;51.506;7.678;2023-07-31T06:53:10;99304.84;;;17.52;100.00
37778;BME280;23615;51.506;7.678;2023-07-31T06:55:35;99300.53;;;17.51;100.00
37778;BME280;23615;51.506;7.678;2023-07-31T06:58:00;99305.91;;;17.56;100.00
37778;BME280;23615;51.506;7.678;2023-07-31T07:00:27;99304.56;;;17.54;100.00
37778;BME280;23615;51.506;7.678;2023-07-31T07:02:52;99308.00;;;17.59;100.00
37778;BME280;23615;51.506;7.678;2023-07-31T07:05:18;99318.50;;;17.61;100.00
37778;BME280;23615;51.506;7.678;2023-07-31T07:07:43;99306.75;;;17.52;100.00
37778;BME280;23615;51.506;7.678;2023-07-31T07:10:09;99312.66;;;17.54;100.00
37778;BME280;23615;51.506;7.678;2023-07-31T07:12:35;99313.47;;;17.54;100.00
37778;BME280;23615;51.506;7.678;2023-07-31T07:17:50;99299.38;;;17.57;100.00
37778;BME280;23615;51.506;7.678;2023-07-31T07:20:16;99300.72;;;17.60;100.00
37778;BME280;23615;51.506;7.678;2023-07-31T07:22:41;99302.09;;;17.57;100.00
37778;BME280;23615;51.506;7.678;2023-07-31T07:25:09;99302.78;;;17.44;100.00
37778;BME280;23615;51.506;7.678;2023-07-31T07:27:34;99302.44;;;17.51;100.00
37778;BME280;23615;51.506;7.678;2023-07-31T07:30:00;99300.25;;;17.53;100.00
37778;BME280;23615;51.506;7.678;2023-07-31T07:32:25;99309.97;;;17.54;100.00
37778;BME280;23615;51.506;7.678;2023-07-31T07:34:51;99302.22;;;17.47;100.00
37778;BME280;23615;51.506;7.678;2023-07-31T07:37:16;99312.38;;;17.55;100.00
37778;BME280;23615;51.506;7.678;2023-07-31T07:39:41;99314.56;;;17.53;100.00
37778;BME280;23615;51.506;7.678;2023-07-31T07:42:07;99311.50;;;17.36;100.00
37778;BME280;23615;51.506;7.678;2023-07-31T07:44:32;99306.91;;;17.37;100.00
37778;BME280;23615;51.506;7.678;2023-07-31T07:46:57;99313.16;;;17.32;100.00
37778;BME280;23615;51.506;7.678;2023-07-31T07:49:23;99310.28;;;17.24;100.00
37778;BME280;23615;51.506;7.678;2023-07-31T07:51:48;99307.34;;;17.20;100.00
37778;BME280;23615;51.506;7.678;2023-07-31T07:54:14;99297.25;;;17.31;100.00
37778;BME280;23615;51.506;7.678;2023-07-31T07:56:39;99294.25;;;17.37;100.00
37778;BME280;23615;51.506;7.678;2023-07-31T07:59:05;99292.00;;;17.44;100.00
37778;BME280;23615;51.506;7.678;2023-07-31T08:01:30;99294.41;;;17.46;100.00
37778;BME280;23615;51.506;7.678;2023-07-31T08:03:55;99292.03;;;17.39;100.00
37778;BME280;23615;51.506;7.678;2023-07-31T08:06:21;99298.41;;;17.48;100.00
37778;BME280;23615;51.506;7.678;2023-07-31T08:08:47;99292.28;;;17.43;100.00
37778;BME280;23615;51.506;7.678;2023-07-31T08:11:13;99305.41;;;17.49;100.00
37778;BME280;23615;51.506;7.678;2023-07-31T08:13:40;99300.94;;;17.40;100.00
37778;BME280;23615;51.506;7.678;2023-07-31T08:16:05;99296.59;;;17.44;100.00
37778;BME280;23615;51.506;7.678;2023-07-31T08:18:31;99299.81;;;17.46;100.00
37778;BME280;23615;51.506;7.678;2023-07-31T08:20:56;99290.38;;;17.43;100.00
37778;BME280;23615;51.506;7.678;2023-07-31T08:23:21;99282.22;;;17.48;100.00
37778;BME280;23615;51.506;7.678;2023-07-31T08:25:46;99288.44;;;17.49;100.00
37778;BME280;23615;51.506;7.678;2023-07-31T08:28:12;99286.22;;;17.56;100.00
37778;BME280;23615;51.506;7.678;2023-07-31T08:30:37;99281.63;;;17.56;100.00
37778;BME280;23615;51.506;7.678;2023-07-31T08:33:02;99286.50;;;17.54;100.00
37778;BME280;23615;51.506;7.678;2023-07-31T08:35:28;99280.84;;;17.51;100.00
37778;BME280;23615;51.506;7.678;2023-07-31T08:37:54;99278.44;;;17.49;100.00
37778;BME280;23615;51.506;7.678;2023-07-31T08:40:19;99282.22;;;17.48;100.00
37778;BME280;23615;51.506;7.678;2023-07-31T08:42:49;99273.56;;;17.51;100.00
37778;BME280;23615;51.506;7.678;2023-07-31T08:45:17;99272.56;;;17.47;100.00
37778;BME280;23615;51.506;7.678;2023-07-31T08:47:48;99265.13;;;17.58;100.00
37778;BME280;23615;51.506;7.678;2023-07-31T08:50:15;99260.91;;;17.52;100.00
37778;BME280;23615;51.506;7.678;2023-07-31T08:52:41;99261.63;;;17.57;100.00
37778;BME280;23615;51.506;7.678;2023-07-31T08:55:07;99262.06;;;17.70;100.00
37778;BME280;23615;51.506;7.678;2023-07-31T08:57:37;99264.84;;;17.59;100.00
37778;BME280;23615;51.506;7.678;2023-07-31T09:00:04;99267.53;;;17.59;100.00
37778;BME280;23615;51.506;7.678;2023-07-31T09:03:00;99264.91;;;17.78;100.00
37778;BME280;23615;51.506;7.678;2023-07-31T09:05:29;99274.56;;;17.84;100.00
37778;BME280;23615;51.506;7.678;2023-07-31T09:07:55;99267.34;;;17.80;100.00
37778;BME280;23615;51.506;7.678;2023-07-31T09:10:21;99266.28;;;17.76;100.00
37778;BME280;23615;51.506;7.678;2023-07-31T09:12:46;99264.31;;;17.63;100.00
37778;BME280;23615;51.506;7.678;2023-07-31T09:15:12;99272.00;;;17.74;100.00
37778;BME280;23615;51.506;7.678;2023-07-31T09:17:38;99267.34;;;17.80;100.00
37778;BME280;23615;51.506;7.678;2023-07-31T09:20:13;99265.19;;;17.77;100.00
37778;BME280;23615;51.506;7.678;2023-07-31T09:22:39;99266.44;;;17.66;100.00
37778;BME280;23615;51.506;7.678;2023-07-31T09:25:24;99255.94;;;17.59;100.00
37778;BME280;23615;51.506;7.678;2023-07-31T09:27:58;99268.75;;;17.48;100.00
37778;BME280;23615;51.506;7.678;2023-07-31T09:33:54;99270.25;;;17.36;100.00
37778;BME280;23615;51.506;7.678;2023-07-31T09:36:20;99266.22;;;17.33;100.00
37778;BME280;23615;51.506;7.678;2023-07-31T09:38:45;99269.09;;;17.42;100.00
37778;BME280;23615;51.506;7.678;2023-07-31T09:41:11;99267.78;;;17.39;100.00
37778;BME280;23615;51.506;7.678;2023-07-31T09:43:37;99259.88;;;17.48;100.00
37778;BME280;23615;51.506;7.678;2023-07-31T09:46:02;99262.44;;;17.34;100.00
37778;BME280;23615;51.506;7.678;2023-07-31T09:48:28;99255.97;;;17.35;100.00
37778;BME280;23615;51.506;7.678;2023-07-31T09:50:53;99263.50;;;17.38;100.00
37778;BME280;23615;51.506;7.678;2023-07-31T09:53:27;99256.50;;;17.37;100.00
37778;BME280;23615;51.506;7.678;2023-07-31T09:55:53;99255.41;;;17.38;100.00
37778;BME280;23615;51.506;7.678;2023-07-31T09:58:19;99256.41;;;17.42;100.00
37778;BME280;23615;51.506;7.678;2023-07-31T10:00:44;99253.31;;;17.54;100.00
37778;BME280;23615;51.506;7.678;2023-07-31T10:03:10;99245.97;;;17.59;100.00
37778;BME280;23615;51.506;7.678;2023-07-31T10:05:38;99245.69;;;17.61;100.00
37778;BME280;23615;51.506;7.678;2023-07-31T10:08:06;99243.78;;;17.62;100.00
37778;BME280;23615;51.506;7.678;2023-07-31T10:10:32;99238.69;;;17.60;100.00
37778;BME280;23615;51.506;7.678;2023-07-31T10:12:59;99237.94;;;17.54;100.00
37778;BME280;23615;51.506;7.678;2023-07-31T10:15:25;99240.56;;;17.65;100.00
37778;BME280;23615;51.506;7.678;2023-07-31T10:17:51;99239.22;;;17.62;100.00
37778;BME280;23615;51.506;7.678;2023-07-31T10:20:17;99240.47;;;17.70;100.00
37778;BME280;23615;51.506;7.678;2023-07-31T10:22:43;99233.19;;;17.70;100.00
37778;BME280;23615;51.506;7.678;2023-07-31T10:25:09;99237.72;;;17.75;100.00
37778;BME280;23615;51.506;7.678;2023-07-31T10:27:41;99234.38;;;17.83;100.00
37778;BME280;23615;51.506;7.678;2023-07-31T10:30:12;99231.41;;;17.84;100.00
37778;BME280;23615;51.506;7.678;2023-07-31T10:32:41;99234.88;;;17.85;100.00
37778;BME280;23615;51.506;7.678;2023-07-31T10:35:08;99234.25;;;17.93;100.00
37778;BME280;23615;51.506;7.678;2023-07-31T10:37:39;99225.50;;;18.01;100.00
37778;BME280;23615;51.506;7.678;2023-07-31T10:40:16;99237.38;;;18.00;100.00
37778;BME280;23615;51.506;7.678;2023-07-31T10:42:49;99237.91;;;18.02;100.00
37778;BME280;23615;51.506;7.678;2023-07-31T10:45:38;99226.56;;;17.81;100.00
37778;BME280;23615;51.506;7.678;2023-07-31T10:48:04;99234.38;;;17.83;100.00
37778;BME280;23615;51.506;7.678;2023-07-31T10:50:32;99227.56;;;17.85;100.00
37778;BME280;23615;51.506;7.678;2023-07-31T10:52:58;99232.63;;;17.92;100.00
37778;BME280;23615;51.506;7.678;2023-07-31T10:55:52;99223.44;;;17.93;100.00
37778;BME280;23615;51.506;7.678;2023-07-31T10:58:19;99229.94;;;17.92;100.00
37778;BME280;23615;51.506;7.678;2023-07-31T11:00:45;99226.06;;;17.98;100.00
37778;BME280;23615;51.506;7.678;2023-07-31T11:03:15;99233.66;;;17.96;100.00
37778;BME280;23615;51.506;7.678;2023-07-31T11:05:45;99227.25;;;17.92;100.00
37778;BME280;23615;51.506;7.678;2023-07-31T11:10:37;99228.91;;;17.88;100.00
37778;BME280;23615;51.506;7.678;2023-07-31T11:13:04;99230.78;;;17.87;100.00
37778;BME280;23615;51.506;7.678;2023-07-31T11:15:30;99229.06;;;17.97;100.00
37778;BME280;23615;51.506;7.678;2023-07-31T11:17:56;99228.91;;;17.88;100.00
37778;BME280;23615;51.506;7.678;2023-07-31T11:20:24;99232.16;;;17.85;100.00
37778;BME280;23615;51.506;7.678;2023-07-31T11:22:49;99226.78;;;17.85;100.00
37778;BME280;23615;51.506;7.678;2023-07-31T11:25:15;99237.56;;;17.85;100.00
37778;BME280;23615;51.506;7.678;2023-07-31T11:27:41;99235.19;;;17.83;100.00
37778;BME280;23615;51.506;7.678;2023-07-31T11:30:07;99239.25;;;17.81;100.00
37778;BME280;23615;51.506;7.678;2023-07-31T11:32:32;99241.69;;;17.82;100.00
37778;BME280;23615;51.506;7.678;2023-07-31T11:34:58;99240.34;;;17.80;100.00
37778;BME280;23615;51.506;7.678;2023-07-31T11:37:23;99240.59;;;17.83;100.00
37778;BME280;23615;51.506;7.678;2023-07-31T11:40:01;99234.38;;;17.83;100.00
37778;BME280;23615;51.506;7.678;2023-07-31T11:42:27;99236.00;;;17.84;100.00
37778;BME280;23615;51.506;7.678;2023-07-31T11:44:52;99237.28;;;17.86;100.00
37778;BME280;23615;51.506;7.678;2023-07-31T11:47:17;99224.72;;;17.77;100.00
37778;BME280;23615;51.506;7.678;2023-07-31T11:49:43;99227.75;;;17.75;100.00
37778;BME280;23615;51.506;7.678;2023-07-31T11:52:09;99222.84;;;17.77;100.00
37778;BME280;23615;51.506;7.678;2023-07-31T11:54:35;99207.69;;;17.81;100.00
37778;BME280;23615;51.506;7.678;2023-07-31T11:57:01;99213.06;;;17.81;100.00
37778;BME280;23615;51.506;7.678;2023-07-31T11:59:27;99217.53;;;17.91;100.00
37778;BME280;23615;51.506;7.678;2023-07-31T12:01:53;99215.03;;;17.94;100.00
37778;BME280;23615;51.506;7.678;2023-07-31T12:04:32;99211.47;;;17.99;100.00
37778;BME280;23615;51.506;7.678;2023-07-31T12:17:07;99208.03;;;18.12;100.00
37778;BME280;23615;51.506;7.678;2023-07-31T12:19:33;99215.03;;;18.13;100.00
37778;BME280;23615;51.506;7.678;2023-07-31T12:21:59;99216.34;;;18.16;100.00
37778;BME280;23615;51.506;7.678;2023-07-31T12:24:28;99214.47;;;18.16;100.00
37778;BME280;23615;51.506;7.678;2023-07-31T12:26:53;99212.34;;;18.13;100.00
37778;BME280;23615;51.506;7.678;2023-07-31T12:37:52;99201.47;;;18.37;100.00
37778;BME280;23615;51.506;7.678;2023-07-31T12:40:17;99199.56;;;18.38;100.00
37778;BME280;23615;51.506;7.678;2023-07-31T12:42:42;99198.88;;;18.46;100.00
37778;BME280;23615;51.506;7.678;2023-07-31T12:45:13;99200.41;;;18.52;100.00
37778;BME280;23615;51.506;7.678;2023-07-31T12:47:39;99200.03;;;18.58;100.00
37778;BME280;23615;51.506;7.678;2023-07-31T12:50:05;99194.34;;;18.60;100.00
37778;BME280;23615;51.506;7.678;2023-07-31T12:52:43;99188.94;;;18.60;100.00
37778;BME280;23615;51.506;7.678;2023-07-31T12:55:09;99186.00;;;18.56;100.00
37778;BME280;23615;51.506;7.678;2023-07-31T12:57:36;99186.84;;;18.57;100.00
37778;BME280;23615;51.506;7.678;2023-07-31T13:00:01;99194.06;;;18.61;100.00
37778;BME280;23615;51.506;7.678;2023-07-31T13:02:26;99194.97;;;18.57;100.00
37778;BME280;23615;51.506;7.678;2023-07-31T13:04:52;99184.56;;;18.45;100.00
37778;BME280;23615;51.506;7.678;2023-07-31T13:07:19;99188.88;;;18.46;100.00
37778;BME280;23615;51.506;7.678;2023-07-31T13:09:44;99187.47;;;18.49;100.00
37778;BME280;23615;51.506;7.678;2023-07-31T13:12:10;99194.00;;;18.48;100.00
37778;BME280;23615;51.506;7.678;2023-07-31T13:14:35;99187.84;;;18.42;100.00
37778;BME280;23615;51.506;7.678;2023-07-31T13:17:00;99181.22;;;18.35;100.00
37778;BME280;23615;51.506;7.678;2023-07-31T13:19:25;99180.59;;;18.24;100.00
37778;BME280;23615;51.506;7.678;2023-07-31T13:21:51;99171.09;;;18.26;100.00